createdAt,value
2023-01-17T09:05:16.312Z,3.30
2023-01-17T09:07:42.976Z,3.40
2023-01-17T09:10:10.125Z,3.40
2023-01-17T09:12:36.821Z,3.40
2023-01-17T09:15:05.055Z,3.40
2023-01-17T09:17:31.814Z,3.40
2023-01-17T09:19:59.793Z,3.30
2023-01-17T09:22:26.867Z,3.30
2023-01-17T09:24:53.543Z,3.30
2023-01-17T09:27:20.764Z,3.30
2023-01-17T09:29:47.405Z,3.40
2023-01-17T09:32:17.167Z,3.60
2023-01-17T09:34:45.752Z,3.90
2023-01-17T09:37:12.425Z,4.10
2023-01-17T09:39:39.082Z,4.30
2023-01-17T09:42:17.173Z,4.50
2023-01-17T09:44:54.165Z,4.40
2023-01-17T09:47:32.943Z,4.20
2023-01-17T09:50:31.837Z,4.20
2023-01-17T09:53:05.341Z,4.10
2023-01-17T09:55:39.879Z,4.10
2023-01-17T09:58:12.247Z,4.00
2023-01-17T10:00:49.856Z,3.90
2023-01-17T10:03:33.165Z,3.90
2023-01-17T10:06:20.970Z,4.00
2023-01-17T10:09:04.055Z,4.10
2023-01-17T10:11:46.755Z,4.10
2023-01-17T10:14:38.645Z,4.10
2023-01-17T10:17:27.814Z,4.10
2023-01-17T10:20:41.844Z,4.00
2023-01-17T10:23:30.840Z,4.10
2023-01-17T10:26:07.945Z,4.10
2023-01-17T10:28:48.568Z,4.10
2023-01-17T10:31:26.699Z,4.00
2023-01-17T10:33:59.844Z,4.10
2023-01-17T10:36:29.772Z,4.30
2023-01-17T10:39:02.590Z,4.50
2023-01-17T10:41:41.099Z,4.70
2023-01-17T10:44:34.278Z,5.00
2023-01-17T10:47:12.512Z,5.10
2023-01-17T10:49:43.936Z,5.20
2023-01-17T10:52:19.506Z,5.40
2023-01-17T10:57:42.871Z,5.40
2023-01-17T11:00:23.774Z,5.30
2023-01-17T17:05:13.018Z,3.00
2023-01-17T17:07:45.379Z,2.90
2023-01-17T17:10:14.731Z,2.90
2023-01-17T17:12:41.522Z,2.80
2023-01-17T17:15:09.200Z,2.70
2023-01-17T17:17:37.581Z,2.60
2023-01-17T17:20:06.028Z,2.60
2023-01-17T17:22:32.842Z,2.50
2023-01-17T17:24:59.463Z,2.50
2023-01-17T17:27:28.803Z,2.60
2023-01-17T17:29:55.433Z,2.50
2023-01-17T17:32:22.096Z,2.50
2023-01-17T17:34:50.970Z,2.40
2023-01-17T17:37:18.156Z,2.30
2023-01-17T17:39:48.164Z,2.30
2023-01-17T17:42:15.497Z,2.30
2023-01-17T17:44:42.108Z,2.20
2023-01-17T17:47:11.651Z,2.20
2023-01-17T17:49:38.808Z,2.20
2023-01-17T17:52:07.209Z,2.20
2023-01-17T17:54:34.284Z,2.10
2023-01-17T17:57:00.961Z,2.10
2023-01-17T17:59:27.720Z,2.10
2023-01-17T18:01:54.335Z,2.10
2023-01-17T18:04:22.052Z,2.10
2023-01-17T18:06:48.783Z,2.10
2023-01-17T18:09:15.662Z,2.10
2023-01-17T18:11:43.485Z,2.00
2023-01-17T18:14:14.024Z,2.00
2023-01-17T18:16:43.596Z,2.00
2023-01-17T18:19:25.498Z,2.00
2023-01-17T18:21:52.873Z,2.00
2023-01-17T18:24:22.194Z,2.00
2023-01-17T18:26:53.940Z,2.10
2023-01-17T18:29:22.267Z,2.00
2023-01-17T18:31:50.203Z,2.00
2023-01-17T18:34:23.796Z,1.90
2023-01-17T18:36:51.298Z,1.90
2023-01-17T18:39:36.213Z,1.90
2023-01-17T18:42:02.832Z,1.80
2023-01-17T18:44:30.096Z,1.80
2023-01-17T18:47:01.814Z,1.80
2023-01-17T18:49:29.043Z,1.70
2023-01-17T18:51:55.912Z,1.60
2023-01-17T18:54:22.637Z,1.60
2023-01-17T18:56:49.408Z,1.50
2023-01-17T18:59:18.456Z,1.50
2023-01-17T19:01:46.079Z,1.40
2023-01-17T19:04:14.398Z,1.40
2023-01-17T19:06:43.732Z,1.30
2023-01-17T19:09:12.311Z,1.30
2023-01-17T19:11:39.297Z,1.30
2023-01-17T19:14:06.875Z,1.20
2023-01-17T19:16:36.637Z,1.30
2023-01-17T19:19:06.969Z,1.30
2023-01-17T19:21:33.945Z,1.20
2023-01-17T19:24:01.427Z,1.10
2023-01-17T19:26:29.014Z,1.10
2023-01-17T19:28:58.672Z,1.00
2023-01-17T19:31:28.269Z,1.00
2023-01-17T19:33:59.593Z,0.90
2023-01-17T19:36:34.901Z,0.90
2023-01-17T19:39:05.630Z,0.90
2023-01-17T19:41:35.009Z,0.90
2023-01-17T19:44:04.746Z,1.00
2023-01-17T19:46:33.336Z,1.20
2023-01-17T19:49:01.041Z,1.30
2023-01-17T19:51:28.217Z,1.30
2023-01-17T19:53:55.681Z,1.40
2023-01-17T19:56:24.671Z,1.40
2023-01-17T19:58:52.155Z,1.40
2023-01-17T20:01:25.074Z,1.40
2023-01-17T20:03:52.214Z,1.40
2023-01-17T20:06:21.343Z,1.40
2023-01-17T20:08:48.701Z,1.40
2023-01-17T20:11:19.113Z,1.50
2023-01-17T20:13:47.077Z,1.50
2023-01-17T20:16:15.517Z,1.50
2023-01-17T20:18:43.304Z,1.50
2023-01-17T20:21:39.190Z,1.40
2023-01-17T20:24:06.136Z,1.20
2023-01-17T20:26:35.086Z,1.20
2023-01-17T20:29:04.473Z,1.10
2023-01-17T20:31:32.237Z,1.00
2023-01-17T20:33:58.961Z,1.00
2023-01-17T20:36:26.926Z,1.00
2023-01-17T20:38:54.406Z,0.90
2023-01-17T20:41:22.924Z,0.90
2023-01-17T20:43:54.213Z,0.90
2023-01-17T20:46:23.483Z,0.90
2023-01-17T20:48:52.564Z,1.10
2023-01-17T20:51:20.329Z,1.10
2023-01-17T20:53:51.473Z,1.20
2023-01-17T20:56:26.244Z,1.10
2023-01-17T20:58:54.142Z,1.00
2023-01-17T21:01:23.037Z,0.90
2023-01-17T21:03:51.570Z,0.90
2023-01-17T21:06:19.575Z,0.90
2023-01-17T21:08:47.474Z,0.80
2023-01-17T21:11:17.197Z,0.80
2023-01-17T21:13:44.458Z,0.80
2023-01-17T21:16:14.150Z,0.70
2023-01-17T21:18:40.919Z,0.70
2023-01-17T21:21:21.953Z,0.70
2023-01-17T21:23:49.942Z,0.70
2023-01-17T21:26:18.843Z,0.70
2023-01-17T21:28:47.493Z,0.70
2023-01-17T21:31:23.024Z,0.70
2023-01-17T21:33:55.441Z,0.70
2023-01-17T21:36:24.644Z,0.70
2023-01-17T21:38:54.461Z,0.70
2023-01-17T21:41:26.686Z,0.70
2023-01-17T21:43:58.448Z,0.80
2023-01-17T21:46:26.237Z,0.80
2023-01-17T21:48:53.166Z,0.70
2023-01-17T21:51:21.649Z,0.70
2023-01-17T21:53:48.621Z,0.70
2023-01-17T21:56:34.409Z,0.60
2023-01-17T21:59:01.244Z,0.70
2023-01-17T22:01:31.004Z,0.70
2023-01-17T22:04:00.949Z,0.60
2023-01-17T22:06:30.202Z,0.70
2023-01-17T22:08:57.117Z,0.80
2023-01-17T22:11:26.048Z,0.90
2023-01-17T22:13:53.331Z,0.70
2023-01-17T22:16:23.302Z,0.70
2023-01-17T22:18:50.691Z,0.60
2023-01-17T22:21:17.517Z,0.50
2023-01-17T22:23:49.375Z,0.40
2023-01-17T22:26:16.410Z,0.40
2023-01-17T22:28:43.665Z,0.30
2023-01-17T22:31:11.515Z,0.30
2023-01-17T22:33:39.241Z,0.30
2023-01-17T22:36:06.573Z,0.20
2023-01-17T22:38:34.078Z,0.20
2023-01-17T22:41:08.123Z,0.20
2023-01-17T22:43:43.445Z,0.20
2023-01-17T22:46:14.468Z,0.20
2023-01-17T22:48:41.535Z,0.10
2023-01-17T22:51:11.055Z,0.10
2023-01-17T22:53:45.935Z,0.10
2023-01-17T22:56:14.699Z,0.00
2023-01-17T22:58:44.582Z,0.00
2023-01-17T23:01:14.274Z,0.00
2023-01-17T23:03:41.457Z,0.00
2023-01-17T23:06:17.292Z,-0.10
2023-01-17T23:08:46.221Z,-0.10
2023-01-17T23:11:43.371Z,-0.20
2023-01-17T23:14:18.262Z,-0.20
2023-01-17T23:17:14.614Z,-0.20
2023-01-17T23:19:47.759Z,-0.20
2023-01-17T23:22:20.067Z,-0.20
2023-01-17T23:24:54.082Z,-0.20
2023-01-17T23:27:45.808Z,-0.30
2023-01-17T23:30:19.185Z,-0.20
2023-01-17T23:32:49.081Z,-0.20
2023-01-17T23:35:16.644Z,-0.20
